sensor_id;sensor_type;location;lat;lon;timestamp;temperature;humidity
8662;DHT22;29684;47.722;9.388;2023-10-31T00:00:08;10.10;99.90
8662;DHT22;29684;47.722;9.388;2023-10-31T00:02:53;10.10;99.90
8662;DHT22;29684;47.722;9.388;2023-10-31T00:05:37;10.00;99.90
8662;DHT22;29684;47.722;9.388;2023-10-31T00:08:21;10.00;99.90
8662;DHT22;29684;47.722;9.388;2023-10-31T00:11:08;10.00;99.90
8662;DHT22;29684;47.722;9.388;2023-10-31T00:13:52;10.10;99.90
8662;DHT22;29684;47.722;9.388;2023-10-31T00:16:37;10.20;99.90
8662;DHT22;29684;47.722;9.388;2023-10-31T00:19:21;10.10;99.90
8662;DHT22;29684;47.722;9.388;2023-10-31T00:22:05;10.00;99.90
8662;DHT22;29684;47.722;9.388;2023-10-31T00:24:49;10.00;99.90
8662;DHT22;29684;47.722;9.388;2023-10-31T00:27:33;9.90;99.90
8662;DHT22;29684;47.722;9.388;2023-10-31T00:30:18;9.90;99.90
8662;DHT22;29684;47.722;9.388;2023-10-31T00:33:02;9.90;99.90
8662;DHT22;29684;47.722;9.388;2023-10-31T00:35:46;9.90;99.90
8662;DHT22;29684;47.722;9.388;2023-10-31T00:38:30;9.80;99.90
8662;DHT22;29684;47.722;9.388;2023-10-31T00:41:14;9.80;99.90
8662;DHT22;29684;47.722;9.388;2023-10-31T00:43:58;9.80;99.90
8662;DHT22;29684;47.722;9.388;2023-10-31T00:46:43;9.80;99.90
8662;DHT22;29684;47.722;9.388;2023-10-31T00:49:28;9.90;99.90
8662;DHT22;29684;47.722;9.388;2023-10-31T00:52:12;9.80;99.90
8662;DHT22;29684;47.722;9.388;2023-10-31T00:54:56;9.80;99.90
8662;DHT22;29684;47.722;9.388;2023-10-31T00:57:40;9.80;99.90
8662;DHT22;29684;47.722;9.388;2023-10-31T01:00:24;9.80;99.90
8662;DHT22;29684;47.722;9.388;2023-10-31T01:03:09;9.80;99.90
8662;DHT22;29684;47.722;9.388;2023-10-31T01:05:53;9.80;99.90
8662;DHT22;29684;47.722;9.388;2023-10-31T01:08:37;9.90;99.90
8662;DHT22;29684;47.722;9.388;2023-10-31T01:11:21;9.80;99.90
8662;DHT22;29684;47.722;9.388;2023-10-31T01:14:05;9.80;99.90
8662;DHT22;29684;47.722;9.388;2023-10-31T01:16:49;9.80;99.90
8662;DHT22;29684;47.722;9.388;2023-10-31T01:19:33;9.80;99.90
8662;DHT22;29684;47.722;9.388;2023-10-31T01:22:17;9.90;99.90
8662;DHT22;29684;47.722;9.388;2023-10-31T01:25:02;9.90;99.90
8662;DHT22;29684;47.722;9.388;2023-10-31T01:27:46;9.90;99.90
8662;DHT22;29684;47.722;9.388;2023-10-31T01:30:30;9.90;99.90
8662;DHT22;29684;47.722;9.388;2023-10-31T01:33:14;10.00;99.90
8662;DHT22;29684;47.722;9.388;2023-10-31T01:35:59;10.00;99.90
8662;DHT22;29684;47.722;9.388;2023-10-31T01:38:43;10.00;99.90
8662;DHT22;29684;47.722;9.388;2023-10-31T01:41:28;10.00;99.90
8662;DHT22;29684;47.722;9.388;2023-10-31T01:44:12;10.00;99.90
8662;DHT22;29684;47.722;9.388;2023-10-31T01:46:56;10.00;99.90
8662;DHT22;29684;47.722;9.388;2023-10-31T01:49:40;10.00;99.90
8662;DHT22;29684;47.722;9.388;2023-10-31T01:52:26;9.80;99.90
8662;DHT22;29684;47.722;9.388;2023-10-31T01:55:10;9.90;99.90
8662;DHT22;29684;47.722;9.388;2023-10-31T01:57:55;9.80;99.90
8662;DHT22;29684;47.722;9.388;2023-10-31T02:00:43;9.80;99.90
8662;DHT22;29684;47.722;9.388;2023-10-31T02:03:27;9.80;99.90
8662;DHT22;29684;47.722;9.388;2023-10-31T02:06:11;9.70;99.90
8662;DHT22;29684;47.722;9.388;2023-10-31T02:08:56;9.80;99.90
8662;DHT22;29684;47.722;9.388;2023-10-31T02:11:40;9.80;99.90
8662;DHT22;29684;47.722;9.388;2023-10-31T02:14:24;9.70;99.90
8662;DHT22;29684;47.722;9.388;2023-10-31T02:17:09;9.70;99.90
8662;DHT22;29684;47.722;9.388;2023-10-31T02:19:53;9.80;99.90
8662;DHT22;29684;47.722;9.388;2023-10-31T02:22:38;9.80;99.90
8662;DHT22;29684;47.722;9.388;2023-10-31T02:25:22;9.90;99.90
8662;DHT22;29684;47.722;9.388;2023-10-31T02:28:06;9.90;99.90
8662;DHT22;29684;47.722;9.388;2023-10-31T02:30:50;9.80;99.90
8662;DHT22;29684;47.722;9.388;2023-10-31T02:33:37;9.80;99.90
8662;DHT22;29684;47.722;9.388;2023-10-31T02:36:22;9.80;99.90
8662;DHT22;29684;47.722;9.388;2023-10-31T02:39:07;9.70;99.90
8662;DHT22;29684;47.722;9.388;2023-10-31T02:41:51;9.80;99.90
8662;DHT22;29684;47.722;9.388;2023-10-31T02:44:35;9.70;99.90
8662;DHT22;29684;47.722;9.388;2023-10-31T02:47:19;9.70;99.90
8662;DHT22;29684;47.722;9.388;2023-10-31T02:50:04;9.60;99.90
8662;DHT22;29684;47.722;9.388;2023-10-31T02:52:48;9.60;99.90
8662;DHT22;29684;47.722;9.388;2023-10-31T02:55:32;9.60;99.90
8662;DHT22;29684;47.722;9.388;2023-10-31T02:58:17;9.60;99.90
8662;DHT22;29684;47.722;9.388;2023-10-31T03:01:01;9.50;99.90
8662;DHT22;29684;47.722;9.388;2023-10-31T03:03:45;9.50;99.90
8662;DHT22;29684;47.722;9.388;2023-10-31T03:06:29;9.50;99.90
8662;DHT22;29684;47.722;9.388;2023-10-31T03:09:14;9.60;99.90
8662;DHT22;29684;47.722;9.388;2023-10-31T03:11:58;9.60;99.90
8662;DHT22;29684;47.722;9.388;2023-10-31T03:14:42;9.70;99.90
8662;DHT22;29684;47.722;9.388;2023-10-31T03:17:27;9.70;99.90
8662;DHT22;29684;47.722;9.388;2023-10-31T03:20:12;9.70;99.90
8662;DHT22;29684;47.722;9.388;2023-10-31T03:22:56;9.70;99.90
8662;DHT22;29684;47.722;9.388;2023-10-31T03:25:40;9.70;99.90
8662;DHT22;29684;47.722;9.388;2023-10-31T03:28:24;9.70;99.90
8662;DHT22;29684;47.722;9.388;2023-10-31T03:31:09;9.60;99.90
8662;DHT22;29684;47.722;9.388;2023-10-31T03:33:54;9.70;99.90
8662;DHT22;29684;47.722;9.388;2023-10-31T03:36:38;9.70;99.90
8662;DHT22;29684;47.722;9.388;2023-10-31T03:39:22;9.70;99.90
8662;DHT22;29684;47.722;9.388;2023-10-31T03:42:06;9.80;99.90
8662;DHT22;29684;47.722;9.388;2023-10-31T03:44:50;9.80;99.90
8662;DHT22;29684;47.722;9.388;2023-10-31T03:47:35;9.90;99.90
8662;DHT22;29684;47.722;9.388;2023-10-31T03:50:19;10.00;99.90
8662;DHT22;29684;47.722;9.388;2023-10-31T03:53:03;10.00;99.90
8662;DHT22;29684;47.722;9.388;2023-10-31T03:55:48;10.00;99.90
8662;DHT22;29684;47.722;9.388;2023-10-31T03:58:32;10.00;99.90
8662;DHT22;29684;47.722;9.388;2023-10-31T04:01:16;9.90;99.90
8662;DHT22;29684;47.722;9.388;2023-10-31T04:04:00;9.90;99.90
8662;DHT22;29684;47.722;9.388;2023-10-31T04:06:44;9.80;99.90
8662;DHT22;29684;47.722;9.388;2023-10-31T04:09:29;9.90;99.90
8662;DHT22;29684;47.722;9.388;2023-10-31T04:12:13;9.90;99.90
8662;DHT22;29684;47.722;9.388;2023-10-31T04:14:58;9.90;99.90
8662;DHT22;29684;47.722;9.388;2023-10-31T04:17:42;9.90;99.90
8662;DHT22;29684;47.722;9.388;2023-10-31T04:20:26;9.90;99.90
8662;DHT22;29684;47.722;9.388;2023-10-31T04:23:10;9.90;99.90
8662;DHT22;29684;47.722;9.388;2023-10-31T04:25:55;9.90;99.90
8662;DHT22;29684;47.722;9.388;2023-10-31T04:28:39;9.90;99.90
8662;DHT22;29684;47.722;9.388;2023-10-31T04:31:24;9.90;99.90
8662;DHT22;29684;47.722;9.388;2023-10-31T04:34:08;9.80;99.90
8662;DHT22;29684;47.722;9.388;2023-10-31T04:36:52;9.80;99.90
8662;DHT22;29684;47.722;9.388;2023-10-31T04:39:36;9.80;99.90
8662;DHT22;29684;47.722;9.388;2023-10-31T04:42:20;9.70;99.90
8662;DHT22;29684;47.722;9.388;2023-10-31T04:45:05;9.70;99.90
8662;DHT22;29684;47.722;9.388;2023-10-31T04:47:49;9.60;99.90
8662;DHT22;29684;47.722;9.388;2023-10-31T04:50:33;9.70;99.90
8662;DHT22;29684;47.722;9.388;2023-10-31T04:53:17;9.70;99.90
8662;DHT22;29684;47.722;9.388;2023-10-31T04:56:02;9.70;99.90
8662;DHT22;29684;47.722;9.388;2023-10-31T04:58:46;9.60;99.90
8662;DHT22;29684;47.722;9.388;2023-10-31T05:01:30;9.60;99.90
8662;DHT22;29684;47.722;9.388;2023-10-31T05:04:15;9.60;99.90
8662;DHT22;29684;47.722;9.388;2023-10-31T05:06:59;9.50;99.90
8662;DHT22;29684;47.722;9.388;2023-10-31T05:09:43;9.50;99.90
8662;DHT22;29684;47.722;9.388;2023-10-31T05:12:27;9.40;99.90
8662;DHT22;29684;47.722;9.388;2023-10-31T05:15:11;9.40;99.90
8662;DHT22;29684;47.722;9.388;2023-10-31T05:17:55;9.40;99.90
8662;DHT22;29684;47.722;9.388;2023-10-31T05:20:39;9.40;99.90
8662;DHT22;29684;47.722;9.388;2023-10-31T05:23:23;9.50;99.90
8662;DHT22;29684;47.722;9.388;2023-10-31T05:26:08;9.30;99.90
8662;DHT22;29684;47.722;9.388;2023-10-31T05:28:52;9.30;99.90
8662;DHT22;29684;47.722;9.388;2023-10-31T05:31:36;9.20;99.90
8662;DHT22;29684;47.722;9.388;2023-10-31T05:34:20;9.20;99.90
8662;DHT22;29684;47.722;9.388;2023-10-31T05:37:05;9.20;99.90
8662;DHT22;29684;47.722;9.388;2023-10-31T05:39:50;9.20;99.90
8662;DHT22;29684;47.722;9.388;2023-10-31T05:42:34;9.20;99.90
8662;DHT22;29684;47.722;9.388;2023-10-31T05:45:18;9.20;99.90
8662;DHT22;29684;47.722;9.388;2023-10-31T05:48:02;9.20;99.90
8662;DHT22;29684;47.722;9.388;2023-10-31T05:50:47;9.10;99.90
8662;DHT22;29684;47.722;9.388;2023-10-31T05:53:31;9.10;99.90
8662;DHT22;29684;47.722;9.388;2023-10-31T05:56:17;9.10;99.90
8662;DHT22;29684;47.722;9.388;2023-10-31T05:59:02;9.00;99.90
8662;DHT22;29684;47.722;9.388;2023-10-31T06:01:46;9.00;99.90
8662;DHT22;29684;47.722;9.388;2023-10-31T06:04:30;9.10;99.90
8662;DHT22;29684;47.722;9.388;2023-10-31T06:07:14;9.00;99.90
8662;DHT22;29684;47.722;9.388;2023-10-31T06:09:58;9.10;99.90
8662;DHT22;29684;47.722;9.388;2023-10-31T06:12:42;9.10;99.90
8662;DHT22;29684;47.722;9.388;2023-10-31T06:15:26;9.10;99.90
8662;DHT22;29684;47.722;9.388;2023-10-31T06:18:10;9.10;99.90
8662;DHT22;29684;47.722;9.388;2023-10-31T06:20:55;9.00;99.90
8662;DHT22;29684;47.722;9.388;2023-10-31T06:23:41;9.00;99.90
8662;DHT22;29684;47.722;9.388;2023-10-31T06:26:26;9.00;99.90
8662;DHT22;29684;47.722;9.388;2023-10-31T06:29:10;9.10;99.90
8662;DHT22;29684;47.722;9.388;2023-10-31T06:31:54;9.00;99.90
8662;DHT22;29684;47.722;9.388;2023-10-31T06:34:39;9.10;99.90
8662;DHT22;29684;47.722;9.388;2023-10-31T06:37:23;9.00;99.90
8662;DHT22;29684;47.722;9.388;2023-10-31T06:40:07;9.10;99.90
8662;DHT22;29684;47.722;9.388;2023-10-31T06:42:52;9.10;99.90
8662;DHT22;29684;47.722;9.388;2023-10-31T06:45:36;9.20;99.90
8662;DHT22;29684;47.722;9.388;2023-10-31T06:48:20;9.20;99.90
8662;DHT22;29684;47.722;9.388;2023-10-31T06:51:04;9.20;99.90
8662;DHT22;29684;47.722;9.388;2023-10-31T06:53:49;9.10;99.90
8662;DHT22;29684;47.722;9.388;2023-10-31T06:56:35;9.20;99.90
8662;DHT22;29684;47.722;9.388;2023-10-31T06:59:19;9.20;99.90
8662;DHT22;29684;47.722;9.388;2023-10-31T07:02:03;9.30;99.90
8662;DHT22;29684;47.722;9.388;2023-10-31T07:04:47;9.30;99.90
8662;DHT22;29684;47.722;9.388;2023-10-31T07:07:31;9.30;99.90
8662;DHT22;29684;47.722;9.388;2023-10-31T07:10:15;9.30;99.90
8662;DHT22;29684;47.722;9.388;2023-10-31T07:12:59;9.30;99.90
8662;DHT22;29684;47.722;9.388;2023-10-31T07:15:44;9.40;99.90
8662;DHT22;29684;47.722;9.388;2023-10-31T07:18:29;9.40;99.90
8662;DHT22;29684;47.722;9.388;2023-10-31T07:21:13;9.40;99.90
8662;DHT22;29684;47.722;9.388;2023-10-31T07:23:57;9.50;99.90
8662;DHT22;29684;47.722;9.388;2023-10-31T07:26:41;9.50;99.90
8662;DHT22;29684;47.722;9.388;2023-10-31T07:29:25;9.40;99.90
8662;DHT22;29684;47.722;9.388;2023-10-31T07:32:09;9.50;99.90
8662;DHT22;29684;47.722;9.388;2023-10-31T07:34:54;9.50;99.90
8662;DHT22;29684;47.722;9.388;2023-10-31T07:37:38;9.50;99.90
8662;DHT22;29684;47.722;9.388;2023-10-31T07:40:22;8.60;99.90
8662;DHT22;29684;47.722;9.388;2023-10-31T07:43:06;9.60;99.90
8662;DHT22;29684;47.722;9.388;2023-10-31T07:45:50;9.60;99.90
8662;DHT22;29684;47.722;9.388;2023-10-31T07:48:35;9.70;99.90
8662;DHT22;29684;47.722;9.388;2023-10-31T07:51:19;9.70;99.90
8662;DHT22;29684;47.722;9.388;2023-10-31T07:54:03;9.70;99.90
8662;DHT22;29684;47.722;9.388;2023-10-31T07:56:47;9.80;99.90
8662;DHT22;29684;47.722;9.388;2023-10-31T07:59:33;9.80;99.90
8662;DHT22;29684;47.722;9.388;2023-10-31T08:02:18;9.90;99.90
8662;DHT22;29684;47.722;9.388;2023-10-31T08:05:02;9.90;99.90
8662;DHT22;29684;47.722;9.388;2023-10-31T08:07:46;9.90;99.90
8662;DHT22;29684;47.722;9.388;2023-10-31T08:10:31;10.00;99.90
8662;DHT22;29684;47.722;9.388;2023-10-31T08:13:15;10.00;99.90
8662;DHT22;29684;47.722;9.388;2023-10-31T08:15:59;10.00;99.90
8662;DHT22;29684;47.722;9.388;2023-10-31T08:18:43;10.00;99.90
8662;DHT22;29684;47.722;9.388;2023-10-31T08:21:28;10.10;99.90
8662;DHT22;29684;47.722;9.388;2023-10-31T08:24:17;10.10;99.90
8662;DHT22;29684;47.722;9.388;2023-10-31T08:27:02;10.20;99.90
8662;DHT22;29684;47.722;9.388;2023-10-31T08:29:46;10.20;99.90
8662;DHT22;29684;47.722;9.388;2023-10-31T08:32:31;10.20;99.90
8662;DHT22;29684;47.722;9.388;2023-10-31T08:35:18;10.20;99.90
8662;DHT22;29684;47.722;9.388;2023-10-31T08:38:02;10.20;99.90
8662;DHT22;29684;47.722;9.388;2023-10-31T08:40:46;10.20;99.90
8662;DHT22;29684;47.722;9.388;2023-10-31T08:43:31;10.20;99.90
8662;DHT22;29684;47.722;9.388;2023-10-31T08:46:15;10.10;99.90
8662;DHT22;29684;47.722;9.388;2023-10-31T08:48:59;10.10;99.90
8662;DHT22;29684;47.722;9.388;2023-10-31T08:51:44;10.10;99.90
8662;DHT22;29684;47.722;9.388;2023-10-31T08:54:29;10.10;99.90
8662;DHT22;29684;47.722;9.388;2023-10-31T08:57:13;10.20;99.90
8662;DHT22;29684;47.722;9.388;2023-10-31T08:59:57;10.20;99.90
8662;DHT22;29684;47.722;9.388;2023-10-31T09:02:41;10.20;99.90
8662;DHT22;29684;47.722;9.388;2023-10-31T09:05:26;10.20;99.90
8662;DHT22;29684;47.722;9.388;2023-10-31T09:08:10;10.30;99.90
8662;DHT22;29684;47.722;9.388;2023-10-31T09:10:54;10.30;99.90
8662;DHT22;29684;47.722;9.388;2023-10-31T09:13:38;10.30;99.90
8662;DHT22;29684;47.722;9.388;2023-10-31T09:16:22;10.40;99.90
8662;DHT22;29684;47.722;9.388;2023-10-31T09:19:07;10.40;99.90
8662;DHT22;29684;47.722;9.388;2023-10-31T09:21:50;10.50;99.90
8662;DHT22;29684;47.722;9.388;2023-10-31T09:24:35;10.40;99.90
8662;DHT22;29684;47.722;9.388;2023-10-31T09:27:19;10.40;99.90
8662;DHT22;29684;47.722;9.388;2023-10-31T09:30:03;10.50;99.90
8662;DHT22;29684;47.722;9.388;2023-10-31T09:32:48;10.50;99.90
8662;DHT22;29684;47.722;9.388;2023-10-31T09:35:32;10.40;99.90
8662;DHT22;29684;47.722;9.388;2023-10-31T09:38:16;10.20;99.90
8662;DHT22;29684;47.722;9.388;2023-10-31T09:41:00;10.10;99.90
8662;DHT22;29684;47.722;9.388;2023-10-31T09:43:45;10.00;99.90
8662;DHT22;29684;47.722;9.388;2023-10-31T09:46:29;10.20;99.90
8662;DHT22;29684;47.722;9.388;2023-10-31T09:49:13;10.10;99.90
8662;DHT22;29684;47.722;9.388;2023-10-31T09:51:57;10.20;99.90
8662;DHT22;29684;47.722;9.388;2023-10-31T09:54:43;10.20;99.90
8662;DHT22;29684;47.722;9.388;2023-10-31T09:57:28;10.20;99.90
8662;DHT22;29684;47.722;9.388;2023-10-31T10:00:13;10.40;99.90
8662;DHT22;29684;47.722;9.388;2023-10-31T10:02:58;10.30;99.90
8662;DHT22;29684;47.722;9.388;2023-10-31T10:05:44;10.30;99.90
8662;DHT22;29684;47.722;9.388;2023-10-31T10:08:30;10.40;99.90
8662;DHT22;29684;47.722;9.388;2023-10-31T10:11:14;10.40;99.90
8662;DHT22;29684;47.722;9.388;2023-10-31T10:13:59;10.50;99.90
8662;DHT22;29684;47.722;9.388;2023-10-31T10:16:43;10.50;99.90
8662;DHT22;29684;47.722;9.388;2023-10-31T10:19:27;10.60;99.90
8662;DHT22;29684;47.722;9.388;2023-10-31T10:22:12;10.60;99.90
8662;DHT22;29684;47.722;9.388;2023-10-31T10:24:58;10.60;99.90
8662;DHT22;29684;47.722;9.388;2023-10-31T10:27:43;10.80;99.90
8662;DHT22;29684;47.722;9.388;2023-10-31T10:30:27;10.70;99.90
8662;DHT22;29684;47.722;9.388;2023-10-31T10:33:11;10.60;99.90
8662;DHT22;29684;47.722;9.388;2023-10-31T10:35:55;10.70;99.90
8662;DHT22;29684;47.722;9.388;2023-10-31T10:38:41;10.70;99.90
8662;DHT22;29684;47.722;9.388;2023-10-31T10:41:29;10.70;99.90
8662;DHT22;29684;47.722;9.388;2023-10-31T10:44:13;10.80;99.90
8662;DHT22;29684;47.722;9.388;2023-10-31T10:47:02;10.80;99.90
8662;DHT22;29684;47.722;9.388;2023-10-31T10:49:47;10.80;99.90
8662;DHT22;29684;47.722;9.388;2023-10-31T10:53:03;10.80;99.90
8662;DHT22;29684;47.722;9.388;2023-10-31T10:55:55;10.90;99.90
8662;DHT22;29684;47.722;9.388;2023-10-31T10:58:51;10.90;99.90
8662;DHT22;29684;47.722;9.388;2023-10-31T11:01:37;11.00;99.90
8662;DHT22;29684;47.722;9.388;2023-10-31T11:04:22;11.10;99.90
8662;DHT22;29684;47.722;9.388;2023-10-31T11:07:07;11.20;99.90
8662;DHT22;29684;47.722;9.388;2023-10-31T11:09:55;11.30;99.90
8662;DHT22;29684;47.722;9.388;2023-10-31T11:12:41;11.40;99.90
8662;DHT22;29684;47.722;9.388;2023-10-31T11:15:27;11.30;99.90
8662;DHT22;29684;47.722;9.388;2023-10-31T11:18:11;11.50;99.90
8662;DHT22;29684;47.722;9.388;2023-10-31T11:20:56;11.40;99.90
8662;DHT22;29684;47.722;9.388;2023-10-31T11:23:40;11.40;99.90
8662;DHT22;29684;47.722;9.388;2023-10-31T11:26:26;11.50;99.90
8662;DHT22;29684;47.722;9.388;2023-10-31T11:29:10;11.50;99.90
8662;DHT22;29684;47.722;9.388;2023-10-31T11:31:55;11.50;99.90
8662;DHT22;29684;47.722;9.388;2023-10-31T11:34:41;11.50;99.90
8662;DHT22;29684;47.722;9.388;2023-10-31T11:37:34;11.50;99.90
8662;DHT22;29684;47.722;9.388;2023-10-31T11:40:22;11.50;99.90
8662;DHT22;29684;47.722;9.388;2023-10-31T11:43:06;11.50;99.90
8662;DHT22;29684;47.722;9.388;2023-10-31T11:45:52;11.60;99.90
8662;DHT22;29684;47.722;9.388;2023-10-31T11:48:52;11.80;99.90
8662;DHT22;29684;47.722;9.388;2023-10-31T11:51:36;12.00;99.90
8662;DHT22;29684;47.722;9.388;2023-10-31T11:54:20;12.10;99.90
8662;DHT22;29684;47.722;9.388;2023-10-31T11:57:04;12.20;99.90
8662;DHT22;29684;47.722;9.388;2023-10-31T11:59:49;12.20;99.90
8662;DHT22;29684;47.722;9.388;2023-10-31T12:02:33;12.10;99.90
8662;DHT22;29684;47.722;9.388;2023-10-31T12:05:17;12.10;99.90
8662;DHT22;29684;47.722;9.388;2023-10-31T12:08:02;12.00;99.90
8662;DHT22;29684;47.722;9.388;2023-10-31T12:10:47;12.00;99.90
8662;DHT22;29684;47.722;9.388;2023-10-31T12:13:31;11.90;99.90
8662;DHT22;29684;47.722;9.388;2023-10-31T12:16:15;11.90;99.90
8662;DHT22;29684;47.722;9.388;2023-10-31T12:19:02;11.90;99.90
8662;DHT22;29684;47.722;9.388;2023-10-31T12:21:47;11.90;99.90
8662;DHT22;29684;47.722;9.388;2023-10-31T12:24:34;11.90;99.90
8662;DHT22;29684;47.722;9.388;2023-10-31T12:27:18;11.90;99.90
8662;DHT22;29684;47.722;9.388;2023-10-31T12:30:02;11.90;99.90
8662;DHT22;29684;47.722;9.388;2023-10-31T12:32:57;14.50;99.90
8662;DHT22;29684;47.722;9.388;2023-10-31T12:35:42;12.10;99.90
8662;DHT22;29684;47.722;9.388;2023-10-31T12:38:27;12.20;99.90
8662;DHT22;29684;47.722;9.388;2023-10-31T12:41:12;12.30;99.90
8662;DHT22;29684;47.722;9.388;2023-10-31T12:43:56;12.40;99.90
8662;DHT22;29684;47.722;9.388;2023-10-31T12:46:41;12.40;99.90
8662;DHT22;29684;47.722;9.388;2023-10-31T12:49:25;12.20;99.90
8662;DHT22;29684;47.722;9.388;2023-10-31T12:52:10;12.10;99.90
8662;DHT22;29684;47.722;9.388;2023-10-31T12:54:56;11.70;99.90
8662;DHT22;29684;47.722;9.388;2023-10-31T12:57:40;11.60;99.90
8662;DHT22;29684;47.722;9.388;2023-10-31T13:00:31;11.50;99.90
8662;DHT22;29684;47.722;9.388;2023-10-31T13:03:16;11.40;99.90
8662;DHT22;29684;47.722;9.388;2023-10-31T13:06:14;11.40;99.90
8662;DHT22;29684;47.722;9.388;2023-10-31T13:08:58;11.40;99.90
8662;DHT22;29684;47.722;9.388;2023-10-31T13:11:46;11.40;99.90
8662;DHT22;29684;47.722;9.388;2023-10-31T13:14:32;9.30;99.90
8662;DHT22;29684;47.722;9.388;2023-10-31T13:17:20;11.30;99.90
8662;DHT22;29684;47.722;9.388;2023-10-31T13:20:08;11.10;99.90
8662;DHT22;29684;47.722;9.388;2023-10-31T13:22:56;11.10;99.90
8662;DHT22;29684;47.722;9.388;2023-10-31T13:25:41;11.00;99.90
8662;DHT22;29684;47.722;9.388;2023-10-31T13:28:26;10.90;99.90
8662;DHT22;29684;47.722;9.388;2023-10-31T13:31:12;10.90;99.90
8662;DHT22;29684;47.722;9.388;2023-10-31T13:33:58;10.90;99.90
8662;DHT22;29684;47.722;9.388;2023-10-31T13:36:42;10.80;99.90
8662;DHT22;29684;47.722;9.388;2023-10-31T13:39:27;10.90;99.90
8662;DHT22;29684;47.722;9.388;2023-10-31T13:42:11;10.90;99.90
8662;DHT22;29684;47.722;9.388;2023-10-31T13:44:55;10.90;99.90
8662;DHT22;29684;47.722;9.388;2023-10-31T13:47:40;10.90;99.90
8662;DHT22;29684;47.722;9.388;2023-10-31T13:50:24;10.90;99.90
8662;DHT22;29684;47.722;9.388;2023-10-31T13:53:09;10.80;99.90
8662;DHT22;29684;47.722;9.388;2023-10-31T13:55:53;10.90;99.90
8662;DHT22;29684;47.722;9.388;2023-10-31T13:58:37;10.80;99.90
8662;DHT22;29684;47.722;9.388;2023-10-31T14:01:21;11.00;99.90
8662;DHT22;29684;47.722;9.388;2023-10-31T14:04:09;11.00;99.90
8662;DHT22;29684;47.722;9.388;2023-10-31T14:06:54;11.00;99.90
8662;DHT22;29684;47.722;9.388;2023-10-31T14:09:39;11.00;99.90
8662;DHT22;29684;47.722;9.388;2023-10-31T14:12:23;11.20;99.90
8662;DHT22;29684;47.722;9.388;2023-10-31T14:15:09;11.10;99.90
8662;DHT22;29684;47.722;9.388;2023-10-31T14:17:53;11.00;99.90
8662;DHT22;29684;47.722;9.388;2023-10-31T14:20:38;11.00;99.90
8662;DHT22;29684;47.722;9.388;2023-10-31T14:23:23;10.90;99.90
8662;DHT22;29684;47.722;9.388;2023-10-31T14:26:08;10.90;99.90
8662;DHT22;29684;47.722;9.388;2023-10-31T14:28:53;10.80;99.90
8662;DHT22;29684;47.722;9.388;2023-10-31T14:31:39;10.70;99.90
8662;DHT22;29684;47.722;9.388;2023-10-31T14:34:24;10.70;99.90
8662;DHT22;29684;47.722;9.388;2023-10-31T14:37:08;10.70;99.90
8662;DHT22;29684;47.722;9.388;2023-10-31T14:39:52;10.70;99.90
8662;DHT22;29684;47.722;9.388;2023-10-31T14:42:36;10.80;99.90
8662;DHT22;29684;47.722;9.388;2023-10-31T14:45:20;10.80;99.90
8662;DHT22;29684;47.722;9.388;2023-10-31T14:48:05;10.80;99.90
8662;DHT22;29684;47.722;9.388;2023-10-31T14:50:49;10.80;99.90
8662;DHT22;29684;47.722;9.388;2023-10-31T14:53:36;10.80;99.90
8662;DHT22;29684;47.722;9.388;2023-10-31T14:56:20;10.70;99.90
8662;DHT22;29684;47.722;9.388;2023-10-31T14:59:06;10.70;99.90
8662;DHT22;29684;47.722;9.388;2023-10-31T15:01:50;10.70;99.90
8662;DHT22;29684;47.722;9.388;2023-10-31T15:04:34;10.70;99.90
8662;DHT22;29684;47.722;9.388;2023-10-31T15:07:19;10.70;99.90
8662;DHT22;29684;47.722;9.388;2023-10-31T15:10:04;10.70;99.90
8662;DHT22;29684;47.722;9.388;2023-10-31T15:12:48;10.70;99.90
8662;DHT22;29684;47.722;9.388;2023-10-31T15:15:32;10.70;99.90
8662;DHT22;29684;47.722;9.388;2023-10-31T15:18:17;10.60;99.90
8662;DHT22;29684;47.722;9.388;2023-10-31T15:21:04;8.00;99.90
8662;DHT22;29684;47.722;9.388;2023-10-31T15:23:48;10.50;99.90
8662;DHT22;29684;47.722;9.388;2023-10-31T15:26:33;10.50;99.90
8662;DHT22;29684;47.722;9.388;2023-10-31T15:29:17;10.40;99.90
8662;DHT22;29684;47.722;9.388;2023-10-31T15:32:02;10.40;99.90
8662;DHT22;29684;47.722;9.388;2023-10-31T15:34:46;10.40;99.90
8662;DHT22;29684;47.722;9.388;2023-10-31T15:37:30;10.30;99.90
8662;DHT22;29684;47.722;9.388;2023-10-31T15:40:14;10.30;99.90
8662;DHT22;29684;47.722;9.388;2023-10-31T15:42:58;10.30;99.90
8662;DHT22;29684;47.722;9.388;2023-10-31T15:45:43;10.30;99.90
8662;DHT22;29684;47.722;9.388;2023-10-31T15:48:27;10.20;99.90
8662;DHT22;29684;47.722;9.388;2023-10-31T15:51:11;10.30;99.90
8662;DHT22;29684;47.722;9.388;2023-10-31T15:53:55;10.20;99.90
8662;DHT22;29684;47.722;9.388;2023-10-31T15:56:39;10.20;99.90
8662;DHT22;29684;47.722;9.388;2023-10-31T15:59:23;10.30;99.90
8662;DHT22;29684;47.722;9.388;2023-10-31T16:02:07;10.20;99.90
8662;DHT22;29684;47.722;9.388;2023-10-31T16:04:52;10.20;99.90
8662;DHT22;29684;47.722;9.388;2023-10-31T16:07:36;10.30;99.90
8662;DHT22;29684;47.722;9.388;2023-10-31T16:10:21;10.40;99.90
8662;DHT22;29684;47.722;9.388;2023-10-31T16:13:07;10.40;99.90
8662;DHT22;29684;47.722;9.388;2023-10-31T16:15:51;10.40;99.90
8662;DHT22;29684;47.722;9.388;2023-10-31T16:18:35;10.40;99.90
8662;DHT22;29684;47.722;9.388;2023-10-31T16:21:21;10.30;99.90
8662;DHT22;29684;47.722;9.388;2023-10-31T16:24:06;10.40;99.90
8662;DHT22;29684;47.722;9.388;2023-10-31T16:26:50;10.40;99.90
8662;DHT22;29684;47.722;9.388;2023-10-31T16:29:34;10.40;99.90
8662;DHT22;29684;47.722;9.388;2023-10-31T16:32:19;10.30;99.90
8662;DHT22;29684;47.722;9.388;2023-10-31T16:35:03;10.20;99.90
8662;DHT22;29684;47.722;9.388;2023-10-31T16:37:48;10.20;99.90
8662;DHT22;29684;47.722;9.388;2023-10-31T16:40:32;10.10;99.90
8662;DHT22;29684;47.722;9.388;2023-10-31T16:43:16;10.20;99.90
8662;DHT22;29684;47.722;9.388;2023-10-31T16:46:01;10.00;99.90
8662;DHT22;29684;47.722;9.388;2023-10-31T16:48:46;10.10;99.90
8662;DHT22;29684;47.722;9.388;2023-10-31T16:51:30;10.00;99.90
8662;DHT22;29684;47.722;9.388;2023-10-31T16:54:14;9.90;99.90
8662;DHT22;29684;47.722;9.388;2023-10-31T16:56:58;10.00;99.90
8662;DHT22;29684;47.722;9.388;2023-10-31T16:59:42;10.00;99.90
8662;DHT22;29684;47.722;9.388;2023-10-31T17:02:26;10.00;99.90
8662;DHT22;29684;47.722;9.388;2023-10-31T17:05:10;10.00;99.90
8662;DHT22;29684;47.722;9.388;2023-10-31T17:07:54;10.00;99.90
8662;DHT22;29684;47.722;9.388;2023-10-31T17:10:42;10.00;99.90
8662;DHT22;29684;47.722;9.388;2023-10-31T17:13:27;9.90;99.90
8662;DHT22;29684;47.722;9.388;2023-10-31T17:16:13;9.80;99.90
8662;DHT22;29684;47.722;9.388;2023-10-31T17:18:58;9.80;99.90
8662;DHT22;29684;47.722;9.388;2023-10-31T17:21:42;9.70;99.90
8662;DHT22;29684;47.722;9.388;2023-10-31T17:24:27;9.70;99.90
8662;DHT22;29684;47.722;9.388;2023-10-31T17:27:11;9.70;99.90
8662;DHT22;29684;47.722;9.388;2023-10-31T17:29:56;9.70;99.90
8662;DHT22;29684;47.722;9.388;2023-10-31T17:32:40;9.60;99.90
8662;DHT22;29684;47.722;9.388;2023-10-31T17:35:25;9.60;99.90
8662;DHT22;29684;47.722;9.388;2023-10-31T17:38:09;9.70;99.90
8662;DHT22;29684;47.722;9.388;2023-10-31T17:40:53;9.70;99.90
8662;DHT22;29684;47.722;9.388;2023-10-31T17:43:38;9.70;99.90